Time,TemperatureF,DewpointF,PressureIn,WindDirection,WindDirectionDegrees,WindSpeedMPH,WindSpeedGustMPH,Humidity,HourlyPrecipIn,Conditions,Clouds,dailyrainin,SoftwareType,DateUTC
2013-01-11 00:03:00,40.0,28.0,30.45,NNE,32,0.0,0.0,63,0.00,,,0.00,,2013-01-11 05:03:00,
2013-01-11 00:13:00,40.0,28.0,30.45,NNE,32,0.0,0.0,63,0.00,,,0.00,,2013-01-11 05:13:00,
2013-01-11 00:22:00,39.0,29.0,30.45,NNE,32,0.0,0.0,66,0.00,,,0.00,,2013-01-11 05:22:00,
2013-01-11 00:33:00,38.0,29.0,30.45,NNE,32,0.0,0.0,69,0.00,,,0.00,,2013-01-11 05:33:00,
2013-01-11 00:43:00,38.0,29.0,30.45,NNE,32,0.0,0.0,69,0.00,,,0.00,,2013-01-11 05:43:00,
2013-01-11 00:53:00,37.0,28.0,30.44,NNE,32,0.0,0.0,71,0.00,,,0.00,,2013-01-11 05:53:00,
2013-01-11 01:03:00,37.0,28.0,30.45,NNE,32,0.0,0.0,71,0.00,,,0.00,,2013-01-11 06:03:00,
2013-01-11 01:12:00,37.0,28.0,30.45,NNE,32,0.0,0.0,71,0.00,,,0.00,,2013-01-11 06:12:00,
2013-01-11 01:22:00,37.0,28.0,30.45,NNE,32,0.0,0.0,71,0.00,,,0.00,,2013-01-11 06:22:00,
2013-01-11 01:32:00,37.0,28.0,30.45,NNE,32,0.0,0.0,70,0.00,,,0.00,,2013-01-11 06:32:00,
2013-01-11 01:42:00,37.0,28.0,30.45,NNE,32,0.0,0.0,70,0.00,,,0.00,,2013-01-11 06:42:00,
2013-01-11 01:52:00,37.0,28.0,30.43,NNE,32,0.0,0.0,70,0.00,,,0.00,,2013-01-11 06:52:00,
2013-01-11 02:02:00,36.0,27.0,30.42,NNE,32,0.0,0.0,70,0.00,,,0.00,,2013-01-11 07:02:00,
2013-01-11 02:12:00,36.0,28.0,30.44,NNE,32,0.0,0.0,71,0.00,,,0.00,,2013-01-11 07:12:00,
2013-01-11 02:22:00,36.0,28.0,30.44,NNE,32,0.0,0.0,71,0.00,,,0.00,,2013-01-11 07:22:00,
2013-01-11 02:32:00,35.0,27.0,30.43,NNE,32,0.0,0.0,72,0.00,,,0.00,,2013-01-11 07:32:00,
2013-01-11 02:42:00,35.0,27.0,30.43,NNE,32,0.0,0.0,73,0.00,,,0.00,,2013-01-11 07:42:00,
2013-01-11 02:52:00,35.0,27.0,30.43,NNE,32,0.0,0.0,73,0.00,,,0.00,,2013-01-11 07:52:00,
2013-01-11 03:02:00,35.0,27.0,30.43,NNE,32,0.0,0.0,73,0.00,,,0.00,,2013-01-11 08:02:00,
2013-01-11 03:12:00,36.0,28.0,30.42,NNE,32,0.0,0.0,72,0.00,,,0.00,,2013-01-11 08:12:00,
2013-01-11 03:22:00,36.0,28.0,30.42,NNE,32,0.0,0.0,72,0.00,,,0.00,,2013-01-11 08:22:00,
2013-01-11 03:32:00,36.0,28.0,30.42,NNE,32,0.0,0.0,72,0.00,,,0.00,,2013-01-11 08:32:00,
2013-01-11 03:42:00,36.0,28.0,30.42,NNE,32,0.0,0.0,72,0.00,,,0.00,,2013-01-11 08:42:00,
2013-01-11 03:53:00,37.0,28.0,30.40,NNE,32,0.0,1.0,70,0.00,,,0.00,,2013-01-11 08:53:00,
2013-01-11 04:02:00,37.0,28.0,30.40,NNE,32,0.0,0.0,69,0.00,,,0.00,,2013-01-11 09:02:00,
2013-01-11 04:12:00,37.0,28.0,30.40,NNE,32,0.0,0.0,69,0.00,,,0.00,,2013-01-11 09:12:00,
2013-01-11 04:23:00,37.0,28.0,30.40,NNE,32,0.0,0.0,70,0.00,,,0.00,,2013-01-11 09:23:00,
2013-01-11 04:32:00,36.0,27.0,30.40,NNE,32,0.0,0.0,70,0.00,,,0.00,,2013-01-11 09:32:00,
2013-01-11 04:42:00,36.0,27.0,30.40,NNE,32,0.0,0.0,70,0.00,,,0.00,,2013-01-11 09:42:00,
2013-01-11 04:52:00,36.0,28.0,30.40,NNE,32,0.0,0.0,71,0.00,,,0.00,,2013-01-11 09:52:00,
2013-01-11 05:02:00,36.0,28.0,30.39,NNE,32,0.0,0.0,71,0.00,,,0.00,,2013-01-11 10:02:00,
2013-01-11 05:12:00,36.0,28.0,30.39,NNE,32,0.0,0.0,71,0.00,,,0.00,,2013-01-11 10:12:00,
2013-01-11 05:22:00,38.0,29.0,30.39,NNE,32,0.0,1.0,69,0.00,,,0.00,,2013-01-11 10:22:00,
2013-01-11 05:32:00,40.0,29.0,30.37,NE,45,1.0,4.0,64,0.00,,,0.00,,2013-01-11 10:32:00,
2013-01-11 05:42:00,40.0,29.0,30.37,NE,45,1.0,4.0,64,0.00,,,0.00,,2013-01-11 10:42:00,
2013-01-11 05:53:00,40.0,28.0,30.36,ENE,59,1.0,4.0,62,0.00,,,0.00,,2013-01-11 10:53:00,
2013-01-11 06:03:00,40.0,28.0,30.36,ENE,59,0.0,1.0,62,0.00,,,0.00,,2013-01-11 11:03:00,
2013-01-11 06:12:00,40.0,28.0,30.36,ENE,59,0.0,1.0,62,0.00,,,0.00,,2013-01-11 11:12:00,
2013-01-11 06:22:00,40.0,28.0,30.37,ENE,59,0.0,1.0,62,0.00,,,0.00,,2013-01-11 11:22:00,
2013-01-11 06:33:00,39.0,27.0,30.36,ENE,59,0.0,1.0,62,0.00,,,0.00,,2013-01-11 11:33:00,
2013-01-11 06:42:00,39.0,27.0,30.36,ENE,59,0.0,1.0,62,0.00,,,0.00,,2013-01-11 11:42:00,
2013-01-11 06:53:00,40.0,28.0,30.35,ENE,59,1.0,3.0,62,0.00,,,0.00,,2013-01-11 11:53:00,
2013-01-11 07:03:00,40.0,28.0,30.36,ENE,61,0.0,4.0,61,0.00,,,0.00,,2013-01-11 12:03:00,
2013-01-11 07:12:00,40.0,28.0,30.36,ENE,61,0.0,4.0,61,0.00,,,0.00,,2013-01-11 12:12:00,
2013-01-11 07:22:00,40.0,28.0,30.36,ENE,62,0.0,4.0,62,0.00,,,0.00,,2013-01-11 12:22:00,
2013-01-11 07:33:00,41.0,28.0,30.37,SE,126,1.0,4.0,60,0.00,,,0.00,,2013-01-11 12:33:00,
2013-01-11 07:42:00,41.0,28.0,30.37,SE,126,1.0,4.0,60,0.00,,,0.00,,2013-01-11 12:42:00,
2013-01-11 07:53:00,40.0,28.0,30.37,SE,135,0.0,3.0,61,0.00,,,0.00,,2013-01-11 12:53:00,
2013-01-11 08:03:00,41.0,29.0,30.37,SE,144,2.0,7.0,61,0.00,,,0.00,,2013-01-11 13:03:00,
2013-01-11 08:13:00,41.0,29.0,30.37,SE,144,2.0,7.0,61,0.00,,,0.00,,2013-01-11 13:13:00,
2013-01-11 08:22:00,41.0,29.0,30.36,SE,144,1.0,3.0,61,0.00,,,0.00,,2013-01-11 13:22:00,
2013-01-11 08:33:00,41.0,28.0,30.35,SSE,150,3.0,5.0,60,0.00,,,0.00,,2013-01-11 13:33:00,
2013-01-11 08:42:00,41.0,28.0,30.35,SSE,150,3.0,5.0,60,0.00,,,0.00,,2013-01-11 13:42:00,
2013-01-11 08:53:00,41.0,29.0,30.36,SSE,152,0.0,5.0,61,0.00,,,0.00,,2013-01-11 13:53:00,
2013-01-11 09:03:00,41.0,29.0,30.35,SSE,152,1.0,3.0,61,0.00,,,0.00,,2013-01-11 14:03:00,
2013-01-11 09:12:00,41.0,29.0,30.35,SSE,152,1.0,3.0,61,0.00,,,0.00,,2013-01-11 14:12:00,
2013-01-11 09:23:00,42.0,30.0,30.33,SE,143,2.0,5.0,61,0.00,,,0.00,,2013-01-11 14:23:00,
2013-01-11 09:33:00,42.0,30.0,30.33,SE,140,2.0,5.0,61,0.00,,,0.00,,2013-01-11 14:33:00,
2013-01-11 09:43:00,42.0,30.0,30.33,SE,143,2.0,5.0,61,0.00,,,0.00,,2013-01-11 14:43:00,
2013-01-11 09:53:00,42.0,30.0,30.33,SE,143,2.0,5.0,61,0.00,,,0.00,,2013-01-11 14:53:00,
2013-01-11 10:03:00,43.0,31.0,30.31,SSE,163,5.0,11.0,62,0.00,,,0.00,,2013-01-11 15:03:00,
2013-01-11 10:13:00,43.0,31.0,30.31,SE,144,4.0,11.0,62,0.00,,,0.00,,2013-01-11 15:13:00,
2013-01-11 10:23:00,43.0,31.0,30.31,SE,144,4.0,11.0,62,0.00,,,0.00,,2013-01-11 15:23:00,
2013-01-11 10:33:00,44.0,32.0,30.31,SSE,155,4.0,11.0,63,0.00,,,0.00,,2013-01-11 15:33:00,
2013-01-11 10:43:00,44.0,32.0,30.31,SSE,155,4.0,11.0,63,0.00,,,0.00,,2013-01-11 15:43:00,
2013-01-11 10:53:00,44.0,32.0,30.30,South,172,4.0,14.0,63,0.00,,,0.00,,2013-01-11 15:53:00,
2013-01-11 11:03:00,44.0,33.0,30.29,SSE,155,5.0,9.0,64,0.00,,,0.00,,2013-01-11 16:03:00,
2013-01-11 11:12:00,44.0,32.0,30.27,SSE,157,6.0,11.0,63,0.00,,,0.00,,2013-01-11 16:12:00,
2013-01-11 11:23:00,44.0,32.0,30.27,SSE,157,6.0,11.0,63,0.00,,,0.00,,2013-01-11 16:23:00,
2013-01-11 11:33:00,44.0,33.0,30.27,South,174,5.0,12.0,64,0.00,,,0.00,,2013-01-11 16:33:00,
2013-01-11 11:43:00,44.0,33.0,30.27,South,174,5.0,12.0,64,0.00,,,0.00,,2013-01-11 16:43:00,
2013-01-11 11:53:00,45.0,34.0,30.25,South,182,4.0,11.0,64,0.00,,,0.00,,2013-01-11 16:53:00,
2013-01-11 12:03:00,45.0,33.0,30.23,SSE,147,4.0,9.0,62,0.00,,,0.00,,2013-01-11 17:03:00,
2013-01-11 12:12:00,45.0,33.0,30.22,SSE,148,4.0,9.0,62,0.00,,,0.00,,2013-01-11 17:12:00,
2013-01-11 12:22:00,45.0,33.0,30.22,SSE,148,4.0,9.0,62,0.00,,,0.00,,2013-01-11 17:22:00,
2013-01-11 12:33:00,45.0,33.0,30.22,South,188,4.0,9.0,62,0.00,,,0.00,,2013-01-11 17:33:00,
2013-01-11 12:43:00,45.0,33.0,30.22,South,188,4.0,9.0,62,0.00,,,0.00,,2013-01-11 17:43:00,
2013-01-11 12:53:00,45.0,32.0,30.22,SE,144,4.0,9.0,60,0.00,,,0.00,,2013-01-11 17:53:00,
2013-01-11 13:03:00,45.0,33.0,30.18,SSE,150,4.0,10.0,63,0.00,,,0.00,,2013-01-11 18:03:00,
2013-01-11 13:13:00,45.0,33.0,30.18,SSE,150,4.0,10.0,63,0.00,,,0.00,,2013-01-11 18:13:00,
2013-01-11 13:23:00,44.0,34.0,30.17,SE,133,5.0,10.0,67,0.02,,,0.02,,2013-01-11 18:23:00,
2013-01-11 13:33:00,44.0,34.0,30.17,SE,140,4.0,11.0,68,0.02,,,0.02,,2013-01-11 18:33:00,
2013-01-11 13:43:00,44.0,34.0,30.17,SE,140,4.0,11.0,68,0.02,,,0.02,,2013-01-11 18:43:00,
2013-01-11 13:53:00,44.0,34.0,30.16,South,172,4.0,9.0,68,0.02,,,0.02,,2013-01-11 18:53:00,
2013-01-11 14:03:00,43.0,34.0,30.16,SSE,163,3.0,8.0,69,0.03,,,0.03,,2013-01-11 19:03:00,
2013-01-11 14:12:00,43.0,34.0,30.16,SSE,163,3.0,8.0,69,0.03,,,0.03,,2013-01-11 19:12:00,
2013-01-11 14:22:00,43.0,35.0,30.16,SSE,148,2.0,7.0,72,0.03,,,0.05,,2013-01-11 19:22:00,
2013-01-11 14:32:00,43.0,35.0,30.16,SSE,148,1.0,7.0,73,0.05,,,0.07,,2013-01-11 19:32:00,
2013-01-11 14:43:00,43.0,35.0,30.16,SSE,148,1.0,7.0,73,0.05,,,0.07,,2013-01-11 19:43:00,
2013-01-11 14:54:00,42.0,35.0,30.14,SE,143,3.0,5.0,75,0.06,,,0.08,,2013-01-11 19:54:00,
2013-01-11 15:03:00,43.0,36.0,30.15,SE,143,1.0,4.0,75,0.05,,,0.08,,2013-01-11 20:03:00,
2013-01-11 15:12:00,43.0,36.0,30.15,SE,143,1.0,4.0,75,0.05,,,0.08,,2013-01-11 20:12:00,
2013-01-11 15:22:00,42.0,35.0,30.14,SE,144,1.0,4.0,76,0.05,,,0.10,,2013-01-11 20:22:00,
2013-01-11 15:33:00,42.0,35.0,30.14,SSE,149,1.0,5.0,77,0.10,,,0.17,,2013-01-11 20:33:00,
2013-01-11 15:43:00,42.0,35.0,30.14,SSE,149,1.0,5.0,77,0.10,,,0.17,,2013-01-11 20:43:00,
2013-01-11 15:53:00,42.0,36.0,30.13,SSW,196,2.0,7.0,79,0.13,,,0.21,,2013-01-11 20:53:00,
2013-01-11 16:03:00,42.0,36.0,30.11,SSE,150,2.0,6.0,79,0.13,,,0.21,,2013-01-11 21:03:00,
2013-01-11 16:12:00,43.0,37.0,30.12,SSE,155,0.0,4.0,80,0.11,,,0.21,,2013-01-11 21:12:00,
2013-01-11 16:23:00,43.0,37.0,30.12,SSE,155,0.0,4.0,80,0.11,,,0.21,,2013-01-11 21:23:00,
2013-01-11 16:33:00,43.0,37.0,30.12,SSE,155,0.0,4.0,80,0.05,,,0.22,,2013-01-11 21:33:00,
2013-01-11 16:42:00,43.0,37.0,30.12,SSE,155,0.0,4.0,80,0.05,,,0.22,,2013-01-11 21:42:00,
2013-01-11 16:53:00,43.0,38.0,30.11,SSE,155,0.0,3.0,81,0.01,,,0.22,,2013-01-11 21:53:00,
2013-01-11 17:02:00,43.0,38.0,30.11,SSE,155,0.0,1.0,81,0.01,,,0.22,,2013-01-11 22:02:00,
2013-01-11 17:12:00,43.0,39.0,30.11,SSE,147,3.0,4.0,86,0.00,,,0.22,,2013-01-11 22:12:00,
2013-01-11 17:22:00,43.0,39.0,30.11,SSE,147,3.0,4.0,86,0.00,,,0.22,,2013-01-11 22:22:00,
2013-01-11 17:33:00,41.0,36.0,30.11,East,100,1.0,5.0,81,0.00,,,0.22,,2013-01-11 22:33:00,
2013-01-11 17:42:00,41.0,36.0,30.11,East,100,1.0,5.0,81,0.00,,,0.22,,2013-01-11 22:42:00,
2013-01-11 17:53:00,41.0,36.0,30.11,East,100,0.0,3.0,81,0.00,,,0.22,,2013-01-11 22:53:00,
2013-01-11 18:02:00,41.0,36.0,30.10,East,100,1.0,5.0,81,0.00,,,0.22,,2013-01-11 23:02:00,
2013-01-11 18:13:00,41.0,36.0,30.10,East,100,1.0,5.0,81,0.00,,,0.22,,2013-01-11 23:13:00,
2013-01-11 18:23:00,41.0,36.0,30.10,East,100,2.0,3.0,82,0.00,,,0.22,,2013-01-11 23:23:00,
2013-01-11 18:32:00,41.0,36.0,30.10,East,100,1.0,2.0,82,0.00,,,0.22,,2013-01-11 23:32:00,
2013-01-11 18:43:00,41.0,36.0,30.10,East,100,1.0,2.0,82,0.00,,,0.22,,2013-01-11 23:43:00,
2013-01-11 18:53:00,41.0,36.0,30.10,East,100,0.0,2.0,82,0.00,,,0.22,,2013-01-11 23:53:00,
2013-01-11 19:02:00,41.0,36.0,30.10,East,100,1.0,3.0,82,0.00,,,0.22,,2013-01-12 00:02:00,
2013-01-11 19:12:00,41.0,36.0,30.09,East,100,1.0,3.0,82,0.00,,,0.22,,2013-01-12 00:12:00,
2013-01-11 19:23:00,41.0,36.0,30.09,East,100,1.0,3.0,82,0.00,,,0.22,,2013-01-12 00:23:00,
2013-01-11 19:33:00,41.0,36.0,30.09,East,100,0.0,1.0,82,0.00,,,0.22,,2013-01-12 00:33:00,
2013-01-11 19:43:00,41.0,36.0,30.09,East,100,0.0,1.0,82,0.00,,,0.22,,2013-01-12 00:43:00,
2013-01-11 19:53:00,41.0,36.0,30.09,East,100,1.0,2.0,82,0.00,,,0.22,,2013-01-12 00:53:00,
2013-01-11 20:02:00,40.0,35.0,30.09,East,99,1.0,6.0,82,0.01,,,0.23,,2013-01-12 01:02:00,
2013-01-11 20:12:00,40.0,35.0,30.09,East,99,1.0,6.0,82,0.01,,,0.23,,2013-01-12 01:12:00,
2013-01-11 20:22:00,40.0,35.0,30.10,East,80,1.0,5.0,83,0.01,,,0.23,,2013-01-12 01:22:00,
2013-01-11 20:33:00,40.0,35.0,30.09,East,80,1.0,4.0,82,0.01,,,0.23,,2013-01-12 01:33:00,
2013-01-11 20:43:00,40.0,35.0,30.09,East,80,1.0,4.0,82,0.01,,,0.23,,2013-01-12 01:43:00,
2013-01-11 20:53:00,40.0,35.0,30.09,ENE,62,3.0,5.0,83,0.01,,,0.23,,2013-01-12 01:53:00,
2013-01-11 21:02:00,39.0,34.0,30.09,NNE,16,3.0,7.0,83,0.00,,,0.23,,2013-01-12 02:02:00,
2013-01-11 21:12:00,39.0,34.0,30.09,NNE,16,3.0,7.0,83,0.00,,,0.23,,2013-01-12 02:12:00,
2013-01-11 21:22:00,39.0,34.0,30.10,North,5,3.0,5.0,83,0.00,,,0.23,,2013-01-12 02:22:00,
2013-01-11 21:33:00,39.0,34.0,30.09,North,5,1.0,5.0,83,0.00,,,0.23,,2013-01-12 02:33:00,
2013-01-11 21:43:00,39.0,34.0,30.09,North,5,1.0,5.0,83,0.00,,,0.23,,2013-01-12 02:43:00,
2013-01-11 21:53:00,39.0,34.0,30.09,North,5,1.0,4.0,83,0.00,,,0.23,,2013-01-12 02:53:00,
2013-01-11 22:03:00,39.0,34.0,30.08,North,5,0.0,5.0,83,0.00,,,0.23,,2013-01-12 03:03:00,
2013-01-11 22:12:00,39.0,34.0,30.08,North,5,0.0,5.0,83,0.00,,,0.23,,2013-01-12 03:12:00,
2013-01-11 22:22:00,39.0,34.0,30.09,North,5,0.0,2.0,83,0.00,,,0.23,,2013-01-12 03:22:00,
2013-01-11 22:33:00,39.0,34.0,30.08,North,5,1.0,2.0,83,0.00,,,0.23,,2013-01-12 03:33:00,
2013-01-11 22:43:00,39.0,34.0,30.08,North,5,1.0,2.0,83,0.00,,,0.23,,2013-01-12 03:43:00,
2013-01-11 22:53:00,39.0,34.0,30.08,North,5,1.0,3.0,83,0.00,,,0.23,,2013-01-12 03:53:00,
2013-01-11 23:02:00,39.0,34.0,30.08,North,5,0.0,2.0,83,0.00,,,0.23,,2013-01-12 04:02:00,
2013-01-11 23:12:00,39.0,34.0,30.08,North,5,0.0,2.0,83,0.00,,,0.23,,2013-01-12 04:12:00,
2013-01-11 23:22:00,39.0,34.0,30.08,North,5,0.0,1.0,83,0.00,,,0.23,,2013-01-12 04:22:00,
2013-01-11 23:32:00,39.0,34.0,30.08,North,5,0.0,2.0,83,0.00,,,0.23,,2013-01-12 04:32:00,
2013-01-11 23:42:00,39.0,34.0,30.08,North,5,0.0,2.0,83,0.00,,,0.23,,2013-01-12 04:42:00,
2013-01-11 23:52:00,39.0,34.0,30.08,North,5,0.0,1.0,83,0.00,,,0.23,,2013-01-12 04:52:00,